sensor_id;sensor_type;location;lat;lon;timestamp;temperature;humidity
30308;DHT22;17114;52.314;8.910;2023-07-09T00:01:20;20.40;99.90
30308;DHT22;17114;52.314;8.910;2023-07-09T00:03:47;20.40;99.90
30308;DHT22;17114;52.314;8.910;2023-07-09T00:06:18;20.40;99.90
30308;DHT22;17114;52.314;8.910;2023-07-09T00:08:48;20.20;99.90
30308;DHT22;17114;52.314;8.910;2023-07-09T00:11:16;20.10;99.90
30308;DHT22;17114;52.314;8.910;2023-07-09T00:13:43;20.10;99.90
30308;DHT22;17114;52.314;8.910;2023-07-09T00:16:24;20.00;99.90
30308;DHT22;17114;52.314;8.910;2023-07-09T00:18:51;20.00;99.90
30308;DHT22;17114;52.314;8.910;2023-07-09T00:21:19;19.90;99.90
30308;DHT22;17114;52.314;8.910;2023-07-09T00:23:47;19.80;99.90
30308;DHT22;17114;52.314;8.910;2023-07-09T00:26:17;19.80;99.90
30308;DHT22;17114;52.314;8.910;2023-07-09T00:28:47;19.70;99.90
30308;DHT22;17114;52.314;8.910;2023-07-09T00:31:16;19.80;99.90
30308;DHT22;17114;52.314;8.910;2023-07-09T00:33:44;19.60;99.90
30308;DHT22;17114;52.314;8.910;2023-07-09T00:36:20;19.50;99.90
30308;DHT22;17114;52.314;8.910;2023-07-09T00:38:50;19.50;99.90
30308;DHT22;17114;52.314;8.910;2023-07-09T00:41:20;19.50;99.90
30308;DHT22;17114;52.314;8.910;2023-07-09T00:43:48;19.50;99.90
30308;DHT22;17114;52.314;8.910;2023-07-09T00:49:05;19.40;99.90
30308;DHT22;17114;52.314;8.910;2023-07-09T00:51:38;19.40;99.90
30308;DHT22;17114;52.314;8.910;2023-07-09T00:54:17;19.40;99.90
30308;DHT22;17114;52.314;8.910;2023-07-09T00:56:46;19.30;99.90
30308;DHT22;17114;52.314;8.910;2023-07-09T00:59:21;19.20;99.90
30308;DHT22;17114;52.314;8.910;2023-07-09T01:01:49;19.10;99.90
30308;DHT22;17114;52.314;8.910;2023-07-09T01:04:19;19.10;99.90
30308;DHT22;17114;52.314;8.910;2023-07-09T01:06:51;19.00;99.90
30308;DHT22;17114;52.314;8.910;2023-07-09T01:09:18;18.90;99.90
30308;DHT22;17114;52.314;8.910;2023-07-09T01:11:45;18.90;99.90
30308;DHT22;17114;52.314;8.910;2023-07-09T01:14:14;18.90;99.90
30308;DHT22;17114;52.314;8.910;2023-07-09T01:16:59;18.90;99.90
30308;DHT22;17114;52.314;8.910;2023-07-09T01:19:29;18.80;99.90
30308;DHT22;17114;52.314;8.910;2023-07-09T01:21:58;18.80;99.90
30308;DHT22;17114;52.314;8.910;2023-07-09T01:24:51;18.80;99.90
30308;DHT22;17114;52.314;8.910;2023-07-09T01:27:23;18.80;99.90
30308;DHT22;17114;52.314;8.910;2023-07-09T01:29:50;18.70;99.90
30308;DHT22;17114;52.314;8.910;2023-07-09T01:32:18;18.50;99.90
30308;DHT22;17114;52.314;8.910;2023-07-09T01:34:47;18.70;99.90
30308;DHT22;17114;52.314;8.910;2023-07-09T01:37:19;18.60;99.90
30308;DHT22;17114;52.314;8.910;2023-07-09T01:39:49;18.50;99.90
30308;DHT22;17114;52.314;8.910;2023-07-09T01:42:17;18.50;99.90
30308;DHT22;17114;52.314;8.910;2023-07-09T01:44:45;18.50;99.90
30308;DHT22;17114;52.314;8.910;2023-07-09T01:47:12;18.40;99.90
30308;DHT22;17114;52.314;8.910;2023-07-09T01:49:39;18.40;99.90
30308;DHT22;17114;52.314;8.910;2023-07-09T01:52:06;18.30;99.90
30308;DHT22;17114;52.314;8.910;2023-07-09T01:54:35;18.30;99.90
30308;DHT22;17114;52.314;8.910;2023-07-09T01:57:25;18.30;99.90
30308;DHT22;17114;52.314;8.910;2023-07-09T01:59:54;18.20;99.90
30308;DHT22;17114;52.314;8.910;2023-07-09T02:02:22;18.20;99.90
30308;DHT22;17114;52.314;8.910;2023-07-09T02:04:52;18.20;99.90
30308;DHT22;17114;52.314;8.910;2023-07-09T02:07:20;18.20;99.90
30308;DHT22;17114;52.314;8.910;2023-07-09T02:09:48;18.10;99.90
30308;DHT22;17114;52.314;8.910;2023-07-09T02:12:15;18.10;99.90
30308;DHT22;17114;52.314;8.910;2023-07-09T02:14:44;18.10;99.90
30308;DHT22;17114;52.314;8.910;2023-07-09T02:17:13;18.10;99.90
30308;DHT22;17114;52.314;8.910;2023-07-09T02:19:40;18.00;99.90
30308;DHT22;17114;52.314;8.910;2023-07-09T02:22:08;18.00;99.90
30308;DHT22;17114;52.314;8.910;2023-07-09T02:24:35;18.00;99.90
30308;DHT22;17114;52.314;8.910;2023-07-09T02:27:05;18.00;99.90
30308;DHT22;17114;52.314;8.910;2023-07-09T02:29:32;17.90;99.90
30308;DHT22;17114;52.314;8.910;2023-07-09T02:32:00;17.90;99.90
30308;DHT22;17114;52.314;8.910;2023-07-09T02:34:28;17.80;99.90
30308;DHT22;17114;52.314;8.910;2023-07-09T02:36:57;17.80;99.90
30308;DHT22;17114;52.314;8.910;2023-07-09T02:39:25;17.80;99.90
30308;DHT22;17114;52.314;8.910;2023-07-09T02:41:52;17.80;99.90
30308;DHT22;17114;52.314;8.910;2023-07-09T02:44:19;17.70;99.90
30308;DHT22;17114;52.314;8.910;2023-07-09T02:46:46;17.70;99.90
30308;DHT22;17114;52.314;8.910;2023-07-09T02:49:14;17.70;99.90
30308;DHT22;17114;52.314;8.910;2023-07-09T02:51:41;17.70;99.90
30308;DHT22;17114;52.314;8.910;2023-07-09T02:54:08;17.70;99.90
30308;DHT22;17114;52.314;8.910;2023-07-09T02:56:35;17.70;99.90
30308;DHT22;17114;52.314;8.910;2023-07-09T02:59:02;17.70;99.90
30308;DHT22;17114;52.314;8.910;2023-07-09T03:01:29;17.70;99.90
30308;DHT22;17114;52.314;8.910;2023-07-09T03:03:57;17.70;99.90
30308;DHT22;17114;52.314;8.910;2023-07-09T03:06:27;17.70;99.90
30308;DHT22;17114;52.314;8.910;2023-07-09T03:08:54;17.70;99.90
30308;DHT22;17114;52.314;8.910;2023-07-09T03:11:21;17.70;99.90
30308;DHT22;17114;52.314;8.910;2023-07-09T03:13:48;17.70;99.90
30308;DHT22;17114;52.314;8.910;2023-07-09T03:16:16;17.70;99.90
30308;DHT22;17114;52.314;8.910;2023-07-09T03:18:43;17.70;99.90
30308;DHT22;17114;52.314;8.910;2023-07-09T03:21:10;17.60;99.90
30308;DHT22;17114;52.314;8.910;2023-07-09T03:23:36;17.60;99.90
30308;DHT22;17114;52.314;8.910;2023-07-09T03:26:04;17.60;99.90
30308;DHT22;17114;52.314;8.910;2023-07-09T03:28:32;17.70;99.90
30308;DHT22;17114;52.314;8.910;2023-07-09T03:30:59;17.70;99.90
30308;DHT22;17114;52.314;8.910;2023-07-09T03:33:26;17.70;99.90
30308;DHT22;17114;52.314;8.910;2023-07-09T03:35:53;17.70;99.90
30308;DHT22;17114;52.314;8.910;2023-07-09T03:38:21;17.80;99.90
30308;DHT22;17114;52.314;8.910;2023-07-09T03:40:54;17.80;99.90
30308;DHT22;17114;52.314;8.910;2023-07-09T03:43:22;17.90;99.90
30308;DHT22;17114;52.314;8.910;2023-07-09T03:45:50;18.00;99.90
30308;DHT22;17114;52.314;8.910;2023-07-09T03:48:18;18.10;99.90
30308;DHT22;17114;52.314;8.910;2023-07-09T03:50:47;18.10;99.90
30308;DHT22;17114;52.314;8.910;2023-07-09T03:53:15;18.20;99.90
30308;DHT22;17114;52.314;8.910;2023-07-09T03:55:44;18.30;99.90
30308;DHT22;17114;52.314;8.910;2023-07-09T03:58:12;18.30;99.90
30308;DHT22;17114;52.314;8.910;2023-07-09T04:00:39;18.40;99.90
30308;DHT22;17114;52.314;8.910;2023-07-09T04:03:07;18.40;99.90
30308;DHT22;17114;52.314;8.910;2023-07-09T04:05:35;18.40;99.90
30308;DHT22;17114;52.314;8.910;2023-07-09T04:08:02;18.40;99.90
30308;DHT22;17114;52.314;8.910;2023-07-09T04:10:29;18.50;99.90
30308;DHT22;17114;52.314;8.910;2023-07-09T04:12:56;18.50;99.90
30308;DHT22;17114;52.314;8.910;2023-07-09T04:15:23;18.60;99.90
30308;DHT22;17114;52.314;8.910;2023-07-09T04:17:50;18.60;99.90
30308;DHT22;17114;52.314;8.910;2023-07-09T04:20:19;18.70;99.90
30308;DHT22;17114;52.314;8.910;2023-07-09T04:22:46;18.80;99.90
30308;DHT22;17114;52.314;8.910;2023-07-09T04:25:13;18.80;99.90
30308;DHT22;17114;52.314;8.910;2023-07-09T04:27:40;18.90;99.90
30308;DHT22;17114;52.314;8.910;2023-07-09T04:30:13;19.00;99.90
30308;DHT22;17114;52.314;8.910;2023-07-09T04:32:43;19.20;99.90
30308;DHT22;17114;52.314;8.910;2023-07-09T04:35:12;19.20;99.90
30308;DHT22;17114;52.314;8.910;2023-07-09T04:37:39;19.40;99.90
30308;DHT22;17114;52.314;8.910;2023-07-09T04:40:08;19.50;99.90
30308;DHT22;17114;52.314;8.910;2023-07-09T04:42:37;20.00;99.90
30308;DHT22;17114;52.314;8.910;2023-07-09T04:45:07;20.40;99.90
30308;DHT22;17114;52.314;8.910;2023-07-09T04:47:35;20.90;99.90
30308;DHT22;17114;52.314;8.910;2023-07-09T04:50:03;21.30;99.90
30308;DHT22;17114;52.314;8.910;2023-07-09T04:52:30;21.40;99.90
30308;DHT22;17114;52.314;8.910;2023-07-09T04:54:57;21.60;99.90
30308;DHT22;17114;52.314;8.910;2023-07-09T04:57:26;22.00;99.90
30308;DHT22;17114;52.314;8.910;2023-07-09T04:59:53;22.50;99.90
30308;DHT22;17114;52.314;8.910;2023-07-09T05:02:20;23.00;99.90
30308;DHT22;17114;52.314;8.910;2023-07-09T05:04:47;23.50;99.90
30308;DHT22;17114;52.314;8.910;2023-07-09T05:07:13;23.80;99.90
30308;DHT22;17114;52.314;8.910;2023-07-09T05:09:40;24.20;99.90
30308;DHT22;17114;52.314;8.910;2023-07-09T05:12:08;24.70;99.90
30308;DHT22;17114;52.314;8.910;2023-07-09T05:14:35;24.90;99.90
30308;DHT22;17114;52.314;8.910;2023-07-09T05:17:01;25.20;99.90
30308;DHT22;17114;52.314;8.910;2023-07-09T05:19:28;25.40;99.90
30308;DHT22;17114;52.314;8.910;2023-07-09T05:21:55;25.50;99.90
30308;DHT22;17114;52.314;8.910;2023-07-09T05:24:22;25.60;99.90
30308;DHT22;17114;52.314;8.910;2023-07-09T05:26:52;25.60;99.90
30308;DHT22;17114;52.314;8.910;2023-07-09T05:29:18;25.80;99.90
30308;DHT22;17114;52.314;8.910;2023-07-09T05:31:45;26.10;99.90
30308;DHT22;17114;52.314;8.910;2023-07-09T05:34:12;26.40;99.90
30308;DHT22;17114;52.314;8.910;2023-07-09T05:36:39;26.60;99.90
30308;DHT22;17114;52.314;8.910;2023-07-09T05:39:06;26.60;99.90
30308;DHT22;17114;52.314;8.910;2023-07-09T05:41:33;26.70;99.90
30308;DHT22;17114;52.314;8.910;2023-07-09T05:43:59;26.80;99.90
30308;DHT22;17114;52.314;8.910;2023-07-09T05:46:27;27.00;99.90
30308;DHT22;17114;52.314;8.910;2023-07-09T05:48:54;27.30;99.90
30308;DHT22;17114;52.314;8.910;2023-07-09T05:51:21;27.50;99.90
30308;DHT22;17114;52.314;8.910;2023-07-09T05:53:50;27.60;99.90
30308;DHT22;17114;52.314;8.910;2023-07-09T05:56:17;27.80;99.90
30308;DHT22;17114;52.314;8.910;2023-07-09T05:58:44;28.20;99.90
30308;DHT22;17114;52.314;8.910;2023-07-09T06:01:11;28.70;99.90
30308;DHT22;17114;52.314;8.910;2023-07-09T06:03:39;29.00;99.90
30308;DHT22;17114;52.314;8.910;2023-07-09T06:06:06;29.30;99.90
30308;DHT22;17114;52.314;8.910;2023-07-09T06:08:33;29.50;99.90
30308;DHT22;17114;52.314;8.910;2023-07-09T06:11:03;29.60;99.90
30308;DHT22;17114;52.314;8.910;2023-07-09T06:13:31;29.70;99.90
30308;DHT22;17114;52.314;8.910;2023-07-09T06:15:59;29.70;99.90
30308;DHT22;17114;52.314;8.910;2023-07-09T06:18:27;29.80;99.90
30308;DHT22;17114;52.314;8.910;2023-07-09T06:20:58;30.00;99.90
30308;DHT22;17114;52.314;8.910;2023-07-09T06:23:25;30.30;99.90
30308;DHT22;17114;52.314;8.910;2023-07-09T06:25:52;30.60;99.90
30308;DHT22;17114;52.314;8.910;2023-07-09T06:28:25;31.10;99.90
30308;DHT22;17114;52.314;8.910;2023-07-09T06:30:52;31.30;99.90
30308;DHT22;17114;52.314;8.910;2023-07-09T06:33:19;31.40;99.90
30308;DHT22;17114;52.314;8.910;2023-07-09T06:35:51;31.70;99.90
30308;DHT22;17114;52.314;8.910;2023-07-09T06:38:19;31.70;99.90
30308;DHT22;17114;52.314;8.910;2023-07-09T06:40:46;31.60;99.90
30308;DHT22;17114;52.314;8.910;2023-07-09T06:43:13;31.80;99.90
30308;DHT22;17114;52.314;8.910;2023-07-09T06:45:55;32.10;99.90
30308;DHT22;17114;52.314;8.910;2023-07-09T06:48:22;32.40;99.90
30308;DHT22;17114;52.314;8.910;2023-07-09T06:50:51;32.70;99.90
30308;DHT22;17114;52.314;8.910;2023-07-09T06:53:19;33.00;99.90
30308;DHT22;17114;52.314;8.910;2023-07-09T06:55:46;32.90;99.90
30308;DHT22;17114;52.314;8.910;2023-07-09T06:58:19;32.80;99.90
30308;DHT22;17114;52.314;8.910;2023-07-09T07:00:49;32.90;99.90
30308;DHT22;17114;52.314;8.910;2023-07-09T07:03:16;33.10;99.90
30308;DHT22;17114;52.314;8.910;2023-07-09T07:05:52;33.10;99.90
30308;DHT22;17114;52.314;8.910;2023-07-09T07:08:22;33.40;99.90
30308;DHT22;17114;52.314;8.910;2023-07-09T07:10:57;33.70;99.90
30308;DHT22;17114;52.314;8.910;2023-07-09T07:13:36;33.80;99.90
30308;DHT22;17114;52.314;8.910;2023-07-09T07:16:06;33.90;99.90
30308;DHT22;17114;52.314;8.910;2023-07-09T07:18:33;34.20;99.90
30308;DHT22;17114;52.314;8.910;2023-07-09T07:21:01;34.50;99.90
30308;DHT22;17114;52.314;8.910;2023-07-09T07:23:28;34.90;99.90
30308;DHT22;17114;52.314;8.910;2023-07-09T07:25:55;35.10;98.60
30308;DHT22;17114;52.314;8.910;2023-07-09T07:28:22;35.50;99.30
30308;DHT22;17114;52.314;8.910;2023-07-09T07:31:03;35.80;96.70
30308;DHT22;17114;52.314;8.910;2023-07-09T07:33:30;35.70;95.30
30308;DHT22;17114;52.314;8.910;2023-07-09T07:35:57;35.50;94.40
30308;DHT22;17114;52.314;8.910;2023-07-09T07:38:27;35.50;92.80
30308;DHT22;17114;52.314;8.910;2023-07-09T07:40:54;35.20;92.80
30308;DHT22;17114;52.314;8.910;2023-07-09T07:43:20;35.30;92.30
30308;DHT22;17114;52.314;8.910;2023-07-09T07:45:48;35.60;92.20
30308;DHT22;17114;52.314;8.910;2023-07-09T07:48:15;35.80;91.20
30308;DHT22;17114;52.314;8.910;2023-07-09T07:50:42;35.90;92.10
30308;DHT22;17114;52.314;8.910;2023-07-09T07:53:10;35.60;90.80
30308;DHT22;17114;52.314;8.910;2023-07-09T07:55:37;35.60;92.50
30308;DHT22;17114;52.314;8.910;2023-07-09T07:58:04;35.50;90.80
30308;DHT22;17114;52.314;8.910;2023-07-09T08:00:31;36.10;90.40
30308;DHT22;17114;52.314;8.910;2023-07-09T08:02:58;36.20;92.10
30308;DHT22;17114;52.314;8.910;2023-07-09T08:05:25;36.30;88.50
30308;DHT22;17114;52.314;8.910;2023-07-09T08:07:52;36.40;91.10
30308;DHT22;17114;52.314;8.910;2023-07-09T08:10:19;36.60;88.00
30308;DHT22;17114;52.314;8.910;2023-07-09T08:12:46;36.60;86.10
30308;DHT22;17114;52.314;8.910;2023-07-09T08:15:13;36.40;83.70
30308;DHT22;17114;52.314;8.910;2023-07-09T08:17:40;36.20;89.30
30308;DHT22;17114;52.314;8.910;2023-07-09T08:20:07;36.40;87.40
30308;DHT22;17114;52.314;8.910;2023-07-09T08:22:34;36.50;86.90
30308;DHT22;17114;52.314;8.910;2023-07-09T08:25:04;36.60;84.00
30308;DHT22;17114;52.314;8.910;2023-07-09T08:27:31;36.60;83.70
30308;DHT22;17114;52.314;8.910;2023-07-09T08:29:58;36.90;83.80
30308;DHT22;17114;52.314;8.910;2023-07-09T08:32:24;36.90;84.50
30308;DHT22;17114;52.314;8.910;2023-07-09T08:34:51;37.20;80.50
30308;DHT22;17114;52.314;8.910;2023-07-09T08:37:38;37.40;83.50
30308;DHT22;17114;52.314;8.910;2023-07-09T08:40:10;36.70;78.10
30308;DHT22;17114;52.314;8.910;2023-07-09T08:42:44;36.70;75.50
30308;DHT22;17114;52.314;8.910;2023-07-09T08:48:26;36.70;75.50
30308;DHT22;17114;52.314;8.910;2023-07-09T08:51:00;36.90;72.00
30308;DHT22;17114;52.314;8.910;2023-07-09T08:53:50;37.10;73.40
30308;DHT22;17114;52.314;8.910;2023-07-09T08:56:19;37.00;74.30
30308;DHT22;17114;52.314;8.910;2023-07-09T08:58:50;36.60;72.20
30308;DHT22;17114;52.314;8.910;2023-07-09T09:01:32;36.20;75.50
30308;DHT22;17114;52.314;8.910;2023-07-09T09:04:24;36.50;77.00
30308;DHT22;17114;52.314;8.910;2023-07-09T09:09:50;36.40;78.10
30308;DHT22;17114;52.314;8.910;2023-07-09T09:12:29;36.90;74.80
30308;DHT22;17114;52.314;8.910;2023-07-09T09:15:17;37.20;73.50
30308;DHT22;17114;52.314;8.910;2023-07-09T09:17:45;36.70;69.80
30308;DHT22;17114;52.314;8.910;2023-07-09T09:20:20;36.70;72.90
30308;DHT22;17114;52.314;8.910;2023-07-09T09:22:57;36.60;69.80
30308;DHT22;17114;52.314;8.910;2023-07-09T09:25:30;36.50;71.80
30308;DHT22;17114;52.314;8.910;2023-07-09T09:28:00;36.40;71.00
30308;DHT22;17114;52.314;8.910;2023-07-09T09:30:28;36.30;72.10
30308;DHT22;17114;52.314;8.910;2023-07-09T09:33:06;36.70;70.80
30308;DHT22;17114;52.314;8.910;2023-07-09T09:35:38;36.50;76.80
30308;DHT22;17114;52.314;8.910;2023-07-09T09:38:16;36.60;74.20
30308;DHT22;17114;52.314;8.910;2023-07-09T09:40:43;36.80;73.60
30308;DHT22;17114;52.314;8.910;2023-07-09T09:43:19;36.50;73.50
30308;DHT22;17114;52.314;8.910;2023-07-09T09:45:50;36.40;73.90
30308;DHT22;17114;52.314;8.910;2023-07-09T09:48:19;36.50;76.70
30308;DHT22;17114;52.314;8.910;2023-07-09T09:50:47;36.70;74.10
30308;DHT22;17114;52.314;8.910;2023-07-09T09:53:20;36.40;71.10
30308;DHT22;17114;52.314;8.910;2023-07-09T09:55:48;36.20;71.90
30308;DHT22;17114;52.314;8.910;2023-07-09T09:58:18;36.20;74.20
30308;DHT22;17114;52.314;8.910;2023-07-09T10:00:50;36.60;71.50
30308;DHT22;17114;52.314;8.910;2023-07-09T10:03:19;36.70;69.90
30308;DHT22;17114;52.314;8.910;2023-07-09T10:05:58;37.00;68.70
30308;DHT22;17114;52.314;8.910;2023-07-09T10:08:30;37.50;70.50
30308;DHT22;17114;52.314;8.910;2023-07-09T10:11:19;37.70;69.20
30308;DHT22;17114;52.314;8.910;2023-07-09T10:13:49;37.90;68.10
30308;DHT22;17114;52.314;8.910;2023-07-09T10:16:19;37.80;66.40
30308;DHT22;17114;52.314;8.910;2023-07-09T10:19:53;37.70;70.40
30308;DHT22;17114;52.314;8.910;2023-07-09T10:27:08;37.70;68.20
30308;DHT22;17114;52.314;8.910;2023-07-09T10:30:11;37.70;69.90
30308;DHT22;17114;52.314;8.910;2023-07-09T10:35:30;37.80;64.90
30308;DHT22;17114;52.314;8.910;2023-07-09T10:38:12;37.50;69.80
30308;DHT22;17114;52.314;8.910;2023-07-09T10:40:54;37.70;71.10
30308;DHT22;17114;52.314;8.910;2023-07-09T10:43:37;37.90;66.70
30308;DHT22;17114;52.314;8.910;2023-07-09T10:46:20;37.70;62.70
30308;DHT22;17114;52.314;8.910;2023-07-09T10:48:51;37.80;67.10
30308;DHT22;17114;52.314;8.910;2023-07-09T10:54:32;37.50;63.10
30308;DHT22;17114;52.314;8.910;2023-07-09T10:57:12;37.60;64.80
30308;DHT22;17114;52.314;8.910;2023-07-09T10:59:43;37.80;65.20
30308;DHT22;17114;52.314;8.910;2023-07-09T11:02:28;37.50;63.40
30308;DHT22;17114;52.314;8.910;2023-07-09T11:05:01;37.30;64.30
30308;DHT22;17114;52.314;8.910;2023-07-09T11:07:56;37.30;64.50
30308;DHT22;17114;52.314;8.910;2023-07-09T11:10:37;37.10;65.30
30308;DHT22;17114;52.314;8.910;2023-07-09T11:13:14;37.20;64.70
30308;DHT22;17114;52.314;8.910;2023-07-09T11:15:48;37.30;61.80
30308;DHT22;17114;52.314;8.910;2023-07-09T11:18:29;37.30;61.80
30308;DHT22;17114;52.314;8.910;2023-07-09T11:21:01;37.40;63.00
30308;DHT22;17114;52.314;8.910;2023-07-09T11:23:43;37.40;65.00
30308;DHT22;17114;52.314;8.910;2023-07-09T11:31:41;37.80;64.20
30308;DHT22;17114;52.314;8.910;2023-07-09T11:39:47;37.40;62.60
30308;DHT22;17114;52.314;8.910;2023-07-09T11:45:11;37.50;60.10
30308;DHT22;17114;52.314;8.910;2023-07-09T11:48:16;37.50;60.10
30308;DHT22;17114;52.314;8.910;2023-07-09T11:50:45;37.30;60.90
30308;DHT22;17114;52.314;8.910;2023-07-09T11:53:34;37.10;63.50
30308;DHT22;17114;52.314;8.910;2023-07-09T11:56:03;36.70;61.70
30308;DHT22;17114;52.314;8.910;2023-07-09T11:58:31;36.60;63.10
30308;DHT22;17114;52.314;8.910;2023-07-09T12:00:58;36.80;61.90
30308;DHT22;17114;52.314;8.910;2023-07-09T12:03:31;36.90;61.90
30308;DHT22;17114;52.314;8.910;2023-07-09T12:06:13;37.10;62.70
30308;DHT22;17114;52.314;8.910;2023-07-09T12:08:43;36.80;62.30
30308;DHT22;17114;52.314;8.910;2023-07-09T12:11:27;36.70;62.30
30308;DHT22;17114;52.314;8.910;2023-07-09T12:13:54;36.80;61.50
30308;DHT22;17114;52.314;8.910;2023-07-09T12:16:25;36.60;63.30
30308;DHT22;17114;52.314;8.910;2023-07-09T12:18:52;36.50;64.50
30308;DHT22;17114;52.314;8.910;2023-07-09T12:21:20;36.60;63.10
30308;DHT22;17114;52.314;8.910;2023-07-09T12:23:47;36.60;62.50
30308;DHT22;17114;52.314;8.910;2023-07-09T12:26:16;36.50;63.00
30308;DHT22;17114;52.314;8.910;2023-07-09T12:28:48;36.30;64.40
30308;DHT22;17114;52.314;8.910;2023-07-09T12:31:16;36.40;63.80
30308;DHT22;17114;52.314;8.910;2023-07-09T12:33:52;36.50;64.60
30308;DHT22;17114;52.314;8.910;2023-07-09T12:36:19;36.80;64.50
30308;DHT22;17114;52.314;8.910;2023-07-09T12:38:49;36.70;65.30
30308;DHT22;17114;52.314;8.910;2023-07-09T12:41:24;36.60;65.20
30308;DHT22;17114;52.314;8.910;2023-07-09T12:43:54;36.40;67.50
30308;DHT22;17114;52.314;8.910;2023-07-09T12:46:24;36.50;66.40
30308;DHT22;17114;52.314;8.910;2023-07-09T12:48:51;36.50;65.40
30308;DHT22;17114;52.314;8.910;2023-07-09T12:51:24;36.60;65.10
30308;DHT22;17114;52.314;8.910;2023-07-09T12:54:02;36.70;65.90
30308;DHT22;17114;52.314;8.910;2023-07-09T12:56:34;36.70;66.80
30308;DHT22;17114;52.314;8.910;2023-07-09T12:59:02;36.80;68.00
30308;DHT22;17114;52.314;8.910;2023-07-09T13:01:34;36.70;65.60
30308;DHT22;17114;52.314;8.910;2023-07-09T13:04:02;36.60;65.50
30308;DHT22;17114;52.314;8.910;2023-07-09T13:06:34;36.50;64.90
30308;DHT22;17114;52.314;8.910;2023-07-09T13:09:03;36.40;67.50
30308;DHT22;17114;52.314;8.910;2023-07-09T13:11:41;36.40;66.30
30308;DHT22;17114;52.314;8.910;2023-07-09T13:14:24;36.40;65.20
30308;DHT22;17114;52.314;8.910;2023-07-09T13:17:08;36.40;66.00
30308;DHT22;17114;52.314;8.910;2023-07-09T13:19:41;36.30;65.00
30308;DHT22;17114;52.314;8.910;2023-07-09T13:22:15;36.30;66.30
30308;DHT22;17114;52.314;8.910;2023-07-09T13:24:42;36.30;66.60
30308;DHT22;17114;52.314;8.910;2023-07-09T13:27:15;36.30;68.60
30308;DHT22;17114;52.314;8.910;2023-07-09T13:29:42;36.40;66.40
30308;DHT22;17114;52.314;8.910;2023-07-09T13:32:10;36.10;65.10
30308;DHT22;17114;52.314;8.910;2023-07-09T13:34:38;35.80;66.60
30308;DHT22;17114;52.314;8.910;2023-07-09T13:37:11;35.70;67.00
30308;DHT22;17114;52.314;8.910;2023-07-09T13:39:39;35.50;67.50
30308;DHT22;17114;52.314;8.910;2023-07-09T13:42:12;35.50;67.60
30308;DHT22;17114;52.314;8.910;2023-07-09T13:44:41;35.60;69.00
30308;DHT22;17114;52.314;8.910;2023-07-09T13:47:15;35.70;69.10
30308;DHT22;17114;52.314;8.910;2023-07-09T13:49:44;35.70;67.90
30308;DHT22;17114;52.314;8.910;2023-07-09T13:52:23;35.70;67.30
30308;DHT22;17114;52.314;8.910;2023-07-09T13:54:50;35.70;66.00
30308;DHT22;17114;52.314;8.910;2023-07-09T13:57:20;35.40;67.80
30308;DHT22;17114;52.314;8.910;2023-07-09T13:59:48;35.20;67.90
30308;DHT22;17114;52.314;8.910;2023-07-09T14:02:28;35.10;69.50
30308;DHT22;17114;52.314;8.910;2023-07-09T14:05:03;35.00;68.50
30308;DHT22;17114;52.314;8.910;2023-07-09T14:07:36;35.00;69.70
30308;DHT22;17114;52.314;8.910;2023-07-09T14:10:06;35.00;71.10
30308;DHT22;17114;52.314;8.910;2023-07-09T14:12:34;35.00;69.50
30308;DHT22;17114;52.314;8.910;2023-07-09T14:15:17;35.00;69.30
30308;DHT22;17114;52.314;8.910;2023-07-09T14:17:45;35.00;67.30
30308;DHT22;17114;52.314;8.910;2023-07-09T14:20:15;35.00;69.60
30308;DHT22;17114;52.314;8.910;2023-07-09T14:22:42;34.80;72.20
30308;DHT22;17114;52.314;8.910;2023-07-09T14:25:22;34.70;71.30
30308;DHT22;17114;52.314;8.910;2023-07-09T14:27:51;34.70;70.10
30308;DHT22;17114;52.314;8.910;2023-07-09T14:30:21;34.70;70.60
30308;DHT22;17114;52.314;8.910;2023-07-09T14:32:49;34.70;72.20
30308;DHT22;17114;52.314;8.910;2023-07-09T14:37:44;34.70;73.80
30308;DHT22;17114;52.314;8.910;2023-07-09T14:40:12;34.60;72.40
30308;DHT22;17114;52.314;8.910;2023-07-09T14:42:39;34.60;71.60
30308;DHT22;17114;52.314;8.910;2023-07-09T14:45:17;34.50;74.60
30308;DHT22;17114;52.314;8.910;2023-07-09T14:47:44;34.60;72.40
30308;DHT22;17114;52.314;8.910;2023-07-09T14:50:12;34.60;72.90
30308;DHT22;17114;52.314;8.910;2023-07-09T14:52:39;34.60;73.40
30308;DHT22;17114;52.314;8.910;2023-07-09T14:55:14;34.60;72.10
30308;DHT22;17114;52.314;8.910;2023-07-09T14:57:41;34.60;71.40
30308;DHT22;17114;52.314;8.910;2023-07-09T15:00:29;34.50;71.30
30308;DHT22;17114;52.314;8.910;2023-07-09T15:02:55;34.60;72.90
30308;DHT22;17114;52.314;8.910;2023-07-09T15:05:26;34.60;69.20
30308;DHT22;17114;52.314;8.910;2023-07-09T15:07:52;34.60;69.70
30308;DHT22;17114;52.314;8.910;2023-07-09T15:10:26;34.50;67.60
30308;DHT22;17114;52.314;8.910;2023-07-09T15:12:56;34.50;70.10
30308;DHT22;17114;52.314;8.910;2023-07-09T15:15:29;34.50;71.30
30308;DHT22;17114;52.314;8.910;2023-07-09T15:17:59;34.50;72.30
30308;DHT22;17114;52.314;8.910;2023-07-09T15:20:29;34.50;74.00
30308;DHT22;17114;52.314;8.910;2023-07-09T15:22:57;34.50;71.20
30308;DHT22;17114;52.314;8.910;2023-07-09T15:25:28;34.40;72.40
30308;DHT22;17114;52.314;8.910;2023-07-09T15:27:55;34.20;70.10
30308;DHT22;17114;52.314;8.910;2023-07-09T15:30:25;34.10;72.20
30308;DHT22;17114;52.314;8.910;2023-07-09T15:32:56;34.00;71.80
30308;DHT22;17114;52.314;8.910;2023-07-09T15:35:31;33.90;71.40
30308;DHT22;17114;52.314;8.910;2023-07-09T15:37:58;33.80;72.70
30308;DHT22;17114;52.314;8.910;2023-07-09T15:40:27;33.70;71.70
30308;DHT22;17114;52.314;8.910;2023-07-09T15:43:07;33.70;72.60
30308;DHT22;17114;52.314;8.910;2023-07-09T15:45:41;33.70;73.70
30308;DHT22;17114;52.314;8.910;2023-07-09T15:50:46;33.70;75.10
30308;DHT22;17114;52.314;8.910;2023-07-09T15:53:13;33.70;74.50
30308;DHT22;17114;52.314;8.910;2023-07-09T15:55:40;33.60;72.90
30308;DHT22;17114;52.314;8.910;2023-07-09T15:58:24;33.70;74.90
30308;DHT22;17114;52.314;8.910;2023-07-09T16:00:52;33.70;74.20
30308;DHT22;17114;52.314;8.910;2023-07-09T16:03:19;33.70;74.60
30308;DHT22;17114;52.314;8.910;2023-07-09T16:05:49;33.70;75.30
30308;DHT22;17114;52.314;8.910;2023-07-09T16:08:16;33.70;75.00
30308;DHT22;17114;52.314;8.910;2023-07-09T16:10:43;33.60;75.90
30308;DHT22;17114;52.314;8.910;2023-07-09T16:13:21;33.50;80.70
30308;DHT22;17114;52.314;8.910;2023-07-09T16:15:49;33.40;76.70
30308;DHT22;17114;52.314;8.910;2023-07-09T16:18:17;33.40;76.40
30308;DHT22;17114;52.314;8.910;2023-07-09T16:20:44;33.30;77.50
30308;DHT22;17114;52.314;8.910;2023-07-09T16:23:18;33.30;78.30
30308;DHT22;17114;52.314;8.910;2023-07-09T16:25:47;33.30;78.90
30308;DHT22;17114;52.314;8.910;2023-07-09T16:28:16;33.30;79.90
30308;DHT22;17114;52.314;8.910;2023-07-09T16:30:45;33.20;83.80